Time;durP1;ratioP1;P1;durP2;ratioP2;P2;SDS_P1;SDS_P2;PMS_P1;PMS_P2;Temp;Humidity;BMP_temperature;BMP_pressure;BME280_temperature;BME280_humidity;BME280_pressure;Samples;Min_cycle;Max_cycle;Signal;HPM_P1;HPM_P2
2022/03/01 00:01:02;;;;;;;118.50;42.70;;;;;;;-3.67;69.34;100542.38;108415;1271;22632;-77
2022/03/01 00:03:29;;;;;;;126.90;44.00;;;;;;;-3.71;69.41;100548.40;108423;1271;23343;-78
2022/03/01 00:05:57;;;;;;;122.10;47.90;;;;;;;-3.75;69.41;100544.05;108380;1271;22519;-77
2022/03/01 00:08:24;;;;;;;131.90;44.80;;;;;;;-3.79;69.07;100548.73;108442;1271;22557;-77
2022/03/01 00:10:51;;;;;;;125.70;44.30;;;;;;;-3.84;68.94;100549.30;108411;1271;22541;-78
2022/03/01 00:13:18;;;;;;;121.50;42.20;;;;;;;-3.90;68.78;100550.02;108425;1271;22607;-77
2022/03/01 00:15:45;;;;;;;113.60;43.00;;;;;;;-3.95;68.85;100550.41;108392;1271;22645;-77
2022/03/01 00:18:12;;;;;;;124.20;46.90;;;;;;;-4.00;69.34;100553.85;108377;1271;22674;-77
2022/03/01 00:20:40;;;;;;;146.70;54.70;;;;;;;-4.04;68.79;100545.95;108388;1271;22611;-77
2022/03/01 00:23:07;;;;;;;146.30;52.40;;;;;;;-4.07;68.47;100544.85;108375;1271;22541;-77
2022/03/01 00:25:34;;;;;;;124.70;48.40;;;;;;;-4.06;68.89;100547.41;108404;1270;22604;-76
2022/03/01 00:28:01;;;;;;;104.90;45.80;;;;;;;-4.06;69.21;100547.91;108402;1271;22594;-76
2022/03/01 00:30:28;;;;;;;112.30;42.90;;;;;;;-4.07;69.68;100547.91;108395;1271;24341;-76
2022/03/01 00:32:55;;;;;;;126.10;45.70;;;;;;;-4.10;70.01;100548.17;108398;1271;23580;-77
2022/03/01 00:35:22;;;;;;;121.50;44.40;;;;;;;-4.13;70.04;100550.83;108391;1271;24259;-77
2022/03/01 00:37:48;;;;;;;127.80;45.50;;;;;;;-4.18;69.89;100554.95;108411;1271;22681;-77
2022/03/01 00:40:15;;;;;;;139.90;50.80;;;;;;;-4.25;70.03;100555.13;108423;1271;22522;-77
2022/03/01 00:42:42;;;;;;;132.30;51.80;;;;;;;-4.29;69.80;100549.77;108398;1271;22535;-76
2022/03/01 00:45:10;;;;;;;147.00;53.80;;;;;;;-4.32;69.53;100550.04;108373;1271;22606;-76
2022/03/01 00:47:37;;;;;;;129.10;46.50;;;;;;;-4.35;69.53;100545.52;108377;1271;22522;-76
2022/03/01 00:50:05;;;;;;;131.30;46.80;;;;;;;-4.38;69.69;100549.02;108421;1271;22547;-76
2022/03/01 00:52:32;;;;;;;128.50;45.70;;;;;;;-4.42;69.78;100543.82;108443;1271;22601;-76
2022/03/01 00:54:59;;;;;;;121.70;43.50;;;;;;;-4.44;69.47;100543.92;108424;1270;22547;-76
2022/03/01 00:57:26;;;;;;;120.90;47.10;;;;;;;-4.43;69.36;100541.58;108405;1271;22560;-76
2022/03/01 00:59:53;;;;;;;115.00;45.60;;;;;;;-4.43;69.65;100545.83;108388;1271;22681;-76
2022/03/01 01:02:20;;;;;;;117.50;40.90;;;;;;;-4.42;70.27;100544.66;108417;1271;24290;-76
2022/03/01 01:04:47;;;;;;;115.30;44.60;;;;;;;-4.45;70.75;100542.03;108377;1271;22527;-76
2022/03/01 01:07:14;;;;;;;113.70;43.10;;;;;;;-4.48;70.75;100542.13;108382;1271;22522;-76
2022/03/01 01:09:41;;;;;;;109.50;41.00;;;;;;;-4.51;70.53;100541.38;108407;1271;22538;-76
2022/03/01 01:12:09;;;;;;;102.20;39.80;;;;;;;-4.54;70.45;100544.34;108409;1271;22536;-76
2022/03/01 01:14:36;;;;;;;102.00;37.10;;;;;;;-4.56;70.32;100544.12;108434;1271;22661;-76
2022/03/01 01:17:03;;;;;;;106.90;39.30;;;;;;;-4.59;70.17;100546.61;108460;1271;22527;-76
2022/03/01 01:19:30;;;;;;;95.90;37.70;;;;;;;-4.62;69.91;100544.33;108500;1274;22547;-79
2022/03/01 01:24:44;;;;;;;120.70;45.50;;;;;;;-4.68;69.57;100540.27;108634;1271;25331;-76
2022/03/01 01:27:11;;;;;;;118.60;47.70;;;;;;;-4.68;69.66;100537.20;108567;1271;22538;-77
2022/03/01 01:29:38;;;;;;;116.90;48.20;;;;;;;-4.67;69.91;100535.52;108587;1271;22546;-73
2022/03/01 01:32:07;;;;;;;111.20;43.30;;;;;;;-4.68;70.88;100536.02;108589;1270;24082;-76
2022/03/01 01:34:34;;;;;;;120.40;45.30;;;;;;;-4.71;70.78;100538.45;108645;1271;22573;-76
2022/03/01 01:37:01;;;;;;;110.60;46.20;;;;;;;-4.74;70.77;100540.60;108631;1271;22513;-77
2022/03/01 01:39:28;;;;;;;120.50;43.20;;;;;;;-4.76;70.66;100541.23;108578;1271;22527;-76
2022/03/01 01:41:55;;;;;;;112.10;40.40;;;;;;;-4.79;70.66;100538.79;108578;1271;22522;-76
2022/03/01 01:44:22;;;;;;;83.90;34.50;;;;;;;-4.82;70.37;100539.89;108201;1271;510569;-76
2022/03/01 01:46:49;;;;;;;90.70;33.60;;;;;;;-4.86;70.11;100537.38;108587;1271;22558;-76
2022/03/01 01:49:16;;;;;;;89.10;35.70;;;;;;;-4.91;70.35;100537.94;108544;1271;24437;-76
2022/03/01 01:51:43;;;;;;;92.70;36.40;;;;;;;-4.96;70.13;100539.34;108569;1271;22529;-76
2022/03/01 01:54:10;;;;;;;105.00;38.80;;;;;;;-5.01;70.30;100539.19;108615;1271;24233;-76
2022/03/01 01:56:37;;;;;;;116.30;39.90;;;;;;;-5.05;70.02;100535.84;108570;1271;22563;-76
2022/03/01 01:59:04;;;;;;;102.80;38.60;;;;;;;-5.11;70.39;100540.63;108577;1271;22550;-76
2022/03/01 02:01:32;;;;;;;128.90;43.50;;;;;;;-5.15;70.12;100542.38;108579;1271;22572;-76
2022/03/01 02:04:00;;;;;;;127.50;50.20;;;;;;;-5.14;69.97;100541.57;108567;1271;22544;-76
2022/03/01 02:06:27;;;;;;;125.70;48.90;;;;;;;-5.12;70.22;100538.90;108577;1271;23207;-77
2022/03/01 02:08:54;;;;;;;120.80;42.40;;;;;;;-5.11;70.73;100541.30;108554;1271;22551;-76
2022/03/01 02:11:21;;;;;;;124.00;44.50;;;;;;;-5.14;71.14;100543.59;108579;1271;22626;-76
2022/03/01 02:13:48;;;;;;;136.30;48.80;;;;;;;-5.16;71.11;100543.17;108585;1270;22535;-76
2022/03/01 02:16:15;;;;;;;147.20;48.60;;;;;;;-5.19;71.02;100539.55;108586;1271;22536;-76
2022/03/01 02:18:42;;;;;;;139.80;51.00;;;;;;;-5.22;70.90;100542.36;108543;1271;22555;-76
2022/03/01 02:21:10;;;;;;;143.20;51.60;;;;;;;-5.26;70.65;100541.54;108590;1271;22530;-77
2022/03/01 02:23:36;;;;;;;138.90;52.40;;;;;;;-5.33;70.51;100541.36;108576;1271;22681;-76
2022/03/01 02:26:03;;;;;;;149.80;49.90;;;;;;;-5.40;70.62;100538.09;108544;1271;22539;-76
2022/03/01 02:28:30;;;;;;;127.70;47.90;;;;;;;-5.45;70.54;100538.10;108583;1271;23972;-77
2022/03/01 02:30:58;;;;;;;125.10;46.50;;;;;;;-5.50;70.41;100536.77;108597;1271;22564;-76
2022/03/01 02:33:26;;;;;;;115.80;45.80;;;;;;;-5.48;70.39;100530.54;108592;1271;22537;-76
2022/03/01 02:35:52;;;;;;;117.10;45.90;;;;;;;-5.47;70.78;100533.82;108577;1271;22978;-76
2022/03/01 02:38:19;;;;;;;109.40;40.80;;;;;;;-5.47;71.56;100535.36;108578;1271;22562;-76
2022/03/01 02:40:46;;;;;;;111.00;41.70;;;;;;;-5.49;71.82;100533.42;108589;1271;22527;-76
2022/03/01 02:43:14;;;;;;;107.20;40.50;;;;;;;-5.51;71.72;100535.55;108594;1271;22514;-76
2022/03/01 02:45:41;;;;;;;114.40;41.60;;;;;;;-5.53;71.46;100534.64;108580;1271;22525;-76
2022/03/01 02:48:08;;;;;;;112.80;42.60;;;;;;;-5.55;71.32;100530.17;108599;1271;22537;-76
2022/03/01 02:50:35;;;;;;;145.20;46.80;;;;;;;-5.58;71.22;100526.20;108590;1270;22549;-76
2022/03/01 02:53:02;;;;;;;133.00;47.20;;;;;;;-5.59;71.03;100525.30;108608;1271;22535;-77
2022/03/01 02:55:29;;;;;;;145.60;49.50;;;;;;;-5.61;71.14;100525.22;108614;1271;22525;-77
2022/03/01 02:57:56;;;;;;;128.80;49.20;;;;;;;-5.63;70.96;100530.11;108632;1271;22616;-77
2022/03/01 03:00:24;;;;;;;170.50;65.10;;;;;;;-5.62;70.75;100529.62;108600;1271;22636;-76
2022/03/01 03:02:51;;;;;;;145.10;60.00;;;;;;;-5.59;71.33;100527.17;108600;1271;22675;-76
2022/03/01 03:05:18;;;;;;;117.70;47.20;;;;;;;-5.56;72.01;100526.59;108586;1271;22529;-77
2022/03/01 03:07:45;;;;;;;137.10;49.00;;;;;;;-5.56;72.45;100522.51;108604;1271;22533;-77
2022/03/01 03:10:12;;;;;;;139.60;51.40;;;;;;;-5.56;72.40;100521.32;108549;1271;22553;-77
2022/03/01 03:12:40;;;;;;;124.60;47.30;;;;;;;-5.58;72.42;100518.36;108552;1271;22526;-78
2022/03/01 03:15:08;;;;;;;121.10;50.30;;;;;;;-5.61;72.08;100513.70;108602;1271;25355;-77
2022/03/01 03:17:35;;;;;;;121.90;47.40;;;;;;;-5.63;71.75;100511.24;108632;1271;22604;-77
2022/03/01 03:20:03;;;;;;;115.20;45.60;;;;;;;-5.68;71.82;100512.84;108586;1271;22531;-78
2022/03/01 03:22:30;;;;;;;115.00;44.10;;;;;;;-5.72;71.59;100512.38;108601;1271;22522;-78
2022/03/01 03:24:58;;;;;;;107.50;43.80;;;;;;;-5.75;71.61;100519.77;108603;1271;22525;-76
2022/03/01 03:27:25;;;;;;;112.30;47.10;;;;;;;-5.77;71.12;100513.90;108591;1271;22534;-76
2022/03/01 03:29:52;;;;;;;111.70;49.00;;;;;;;-5.77;71.33;100511.52;108582;1271;22734;-75
2022/03/01 03:32:19;;;;;;;106.80;50.20;;;;;;;-5.77;71.57;100512.20;108593;1271;22595;-76
2022/03/01 03:34:46;;;;;;;102.70;41.60;;;;;;;-5.79;72.21;100511.99;108570;1271;22531;-76
2022/03/01 03:37:14;;;;;;;112.10;43.40;;;;;;;-5.82;72.52;100507.31;108597;1271;25660;-76
2022/03/01 03:39:41;;;;;;;110.90;45.20;;;;;;;-5.85;72.46;100506.04;108643;1271;22541;-76
2022/03/01 03:42:08;;;;;;;116.20;46.40;;;;;;;-5.87;72.24;100505.80;108633;1268;22615;-76
2022/03/01 03:44:35;;;;;;;104.20;43.20;;;;;;;-5.90;72.02;100509.81;108605;1271;22546;-76
2022/03/01 03:47:02;;;;;;;93.80;41.20;;;;;;;-5.92;71.87;100510.09;108630;1271;24869;-76
2022/03/01 03:49:29;;;;;;;97.70;39.20;;;;;;;-5.95;71.98;100510.84;108611;1271;22528;-76
2022/03/01 03:51:56;;;;;;;104.70;42.90;;;;;;;-5.97;71.82;100509.92;108573;1271;22560;-77
2022/03/01 03:54:23;;;;;;;104.40;39.00;;;;;;;-5.99;71.65;100508.00;108598;1271;22615;-76
2022/03/01 03:56:50;;;;;;;99.90;39.40;;;;;;;-6.00;71.71;100504.42;108642;1271;22569;-76
2022/03/01 03:59:17;;;;;;;104.90;41.90;;;;;;;-6.02;71.84;100504.02;108554;1271;22522;-76
2022/03/01 04:01:44;;;;;;;108.60;47.30;;;;;;;-6.00;71.56;100499.16;108619;1270;25340;-76
2022/03/01 04:04:11;;;;;;;110.40;46.30;;;;;;;-5.98;71.68;100497.67;108611;1271;22791;-76
2022/03/01 04:06:39;;;;;;;101.00;38.30;;;;;;;-5.96;72.23;100497.58;108640;1271;22604;-76
2022/03/01 04:09:06;;;;;;;93.70;37.90;;;;;;;-5.98;72.72;100493.79;108564;1271;23327;-78
2022/03/01 04:11:34;;;;;;;93.40;36.70;;;;;;;-6.01;72.76;100494.71;108629;1271;22524;-76
2022/03/01 04:14:02;;;;;;;78.20;36.30;;;;;;;-6.03;72.47;100491.59;108626;1270;25293;-77
2022/03/01 04:16:29;;;;;;;80.50;36.10;;;;;;;-6.06;72.25;100493.70;108623;1270;22601;-77
2022/03/01 04:18:56;;;;;;;75.20;33.60;;;;;;;-6.08;72.31;100493.48;108619;1271;22525;-76
2022/03/01 04:21:23;;;;;;;68.50;33.40;;;;;;;-6.11;72.09;100489.84;108594;1271;24266;-76
2022/03/01 04:23:50;;;;;;;65.70;32.10;;;;;;;-6.13;71.84;100485.36;108624;1271;22525;-77
2022/03/01 04:26:17;;;;;;;87.20;36.00;;;;;;;-6.15;71.82;100483.60;108593;1271;22690;-77
2022/03/01 04:28:44;;;;;;;87.10;40.40;;;;;;;-6.12;71.72;100483.02;108570;1271;22531;-76
2022/03/01 04:31:13;;;;;;;89.50;39.50;;;;;;;-6.09;72.22;100483.78;108588;1271;22526;-76
2022/03/01 04:33:40;;;;;;;85.00;34.20;;;;;;;-6.09;72.57;100479.40;108631;1271;25511;-76
2022/03/01 04:36:08;;;;;;;97.70;38.40;;;;;;;-6.10;72.82;100478.34;108600;1271;22694;-76
2022/03/01 04:38:36;;;;;;;99.50;38.20;;;;;;;-6.10;73.02;100473.41;108641;1271;24249;-76
2022/03/01 04:41:04;;;;;;;101.20;39.50;;;;;;;-6.11;72.70;100472.86;108591;1271;22555;-77
2022/03/01 04:43:32;;;;;;;99.50;40.80;;;;;;;-6.15;72.47;100467.66;108609;1271;22516;-77
2022/03/01 04:45:59;;;;;;;104.30;37.50;;;;;;;-6.16;72.69;100464.89;108611;1271;22547;-77
2022/03/01 04:48:27;;;;;;;102.80;38.50;;;;;;;-6.18;72.44;100463.01;108622;1271;22607;-77
2022/03/01 04:50:54;;;;;;;98.60;39.70;;;;;;;-6.19;72.06;100461.27;108649;1271;22594;-76
2022/03/01 04:53:21;;;;;;;104.00;39.40;;;;;;;-6.21;71.98;100462.56;108590;1271;26491;-76
2022/03/01 04:55:48;;;;;;;92.10;38.90;;;;;;;-6.22;71.93;100460.66;108626;1271;22525;-75
2022/03/01 04:58:15;;;;;;;105.50;41.30;;;;;;;-6.22;71.78;100461.31;108610;1271;22603;-76
2022/03/01 05:00:42;;;;;;;99.80;43.70;;;;;;;-6.20;71.94;100456.84;108650;1271;22723;-76
2022/03/01 05:03:09;;;;;;;101.90;43.10;;;;;;;-6.16;72.04;100453.53;108589;1271;22516;-76
2022/03/01 05:05:36;;;;;;;84.40;35.70;;;;;;;-6.14;72.65;100450.90;108588;1271;22582;-76
2022/03/01 05:08:04;;;;;;;88.40;37.00;;;;;;;-6.16;73.03;100447.94;108569;1271;22527;-76
2022/03/01 05:10:31;;;;;;;93.20;36.30;;;;;;;-6.17;72.91;100450.12;108602;1271;22567;-76
2022/03/01 05:13:01;;;;;;;93.80;39.20;;;;;;;-6.18;72.87;100448.89;108605;1271;22678;-77
2022/03/01 05:15:29;;;;;;;84.00;35.80;;;;;;;-6.21;72.80;100451.86;108708;1271;24217;-76
2022/03/01 05:17:58;;;;;;;81.90;34.50;;;;;;;-6.24;72.79;100449.21;108610;1271;22523;-76
2022/03/01 05:20:26;;;;;;;75.80;32.80;;;;;;;-6.27;72.45;100448.12;108604;1271;24260;-76
2022/03/01 05:22:54;;;;;;;79.20;33.40;;;;;;;-6.31;72.20;100452.23;108638;1271;22625;-76
2022/03/01 05:25:23;;;;;;;82.50;33.30;;;;;;;-6.35;72.36;100452.63;108462;1271;24469;-75
2022/03/01 05:27:52;;;;;;;95.80;36.50;;;;;;;-6.38;71.92;100457.95;108432;1271;22697;-76
2022/03/01 05:30:20;;;;;;;136.00;45.50;;;;;;;-6.41;71.87;100455.78;108366;1271;22629;-76
2022/03/01 05:32:50;;;;;;;147.90;55.80;;;;;;;-6.39;71.97;100452.80;108349;1271;24252;-77
2022/03/01 05:35:22;;;;;;;142.10;54.60;;;;;;;-6.36;72.36;100454.77;108553;1270;22544;-76
2022/03/01 05:37:52;;;;;;;135.80;48.70;;;;;;;-6.34;73.32;100452.95;108388;1271;22525;-77
2022/03/01 05:40:21;;;;;;;141.10;50.20;;;;;;;-6.35;73.30;100454.80;108389;1271;22557;-76
2022/03/01 05:42:48;;;;;;;153.80;54.70;;;;;;;-6.36;73.49;100455.12;108355;1271;23357;-77
2022/03/01 05:45:16;;;;;;;157.70;57.30;;;;;;;-6.37;73.36;100456.47;108379;1271;22560;-76
2022/03/01 05:47:43;;;;;;;187.30;68.30;;;;;;;-6.35;73.38;100455.65;108367;1270;22611;-77
2022/03/01 05:50:12;;;;;;;198.10;80.20;;;;;;;-6.34;72.83;100457.71;108412;1271;25238;-77
2022/03/01 05:52:40;;;;;;;202.20;82.70;;;;;;;-6.33;72.98;100456.38;108389;1271;22528;-77
2022/03/01 05:55:09;;;;;;;184.90;74.60;;;;;;;-6.33;72.89;100460.13;108434;1271;22528;-77
2022/03/01 05:57:36;;;;;;;142.90;62.30;;;;;;;-6.33;72.63;100456.73;108374;1271;22807;-77
2022/03/01 06:00:08;;;;;;;146.80;70.60;;;;;;;-6.32;72.49;100457.79;108360;1271;22612;-77
2022/03/01 06:02:35;;;;;;;179.00;85.70;;;;;;;-6.26;72.58;100463.75;108403;1271;22601;-76
2022/03/01 06:05:02;;;;;;;172.60;80.60;;;;;;;-6.19;72.92;100468.54;108390;1271;22529;-77
2022/03/01 06:07:29;;;;;;;146.30;60.30;;;;;;;-6.13;73.65;100471.45;108401;1271;22543;-77
2022/03/01 06:09:56;;;;;;;142.20;59.70;;;;;;;-6.08;74.11;100474.30;108382;1271;22688;-76
2022/03/01 06:12:23;;;;;;;165.50;72.30;;;;;;;-6.02;74.26;100476.36;108378;1271;24082;-77
2022/03/01 06:14:50;;;;;;;164.00;73.20;;;;;;;-5.88;74.32;100475.07;108385;1271;22604;-77
2022/03/01 06:17:17;;;;;;;176.70;75.60;;;;;;;-5.68;74.56;100475.14;108384;1271;25131;-76
2022/03/01 06:19:44;;;;;;;184.80;77.90;;;;;;;-5.51;74.82;100471.40;108380;1271;23081;-77
2022/03/01 06:22:11;;;;;;;179.30;75.60;;;;;;;-5.36;74.88;100475.89;108360;1271;22665;-79
2022/03/01 06:24:41;;;;;;;184.90;73.90;;;;;;;-5.16;74.75;100475.73;108346;1271;22724;-77
2022/03/01 06:27:08;;;;;;;178.30;71.90;;;;;;;-4.94;74.85;100481.44;108347;1271;22601;-77
2022/03/01 06:29:36;;;;;;;182.10;73.80;;;;;;;-4.71;74.83;100482.55;108397;1271;22527;-77
2022/03/01 06:32:05;;;;;;;198.80;77.90;;;;;;;-4.48;75.04;100473.59;108361;1269;22531;-78
2022/03/01 06:34:33;;;;;;;198.90;80.10;;;;;;;-4.23;74.84;100471.82;108383;1271;22547;-77
2022/03/01 06:37:00;;;;;;;186.00;72.00;;;;;;;-4.00;75.06;100468.08;108423;1271;22559;-77
2022/03/01 06:39:28;;;;;;;204.40;75.10;;;;;;;-3.80;75.24;100463.25;108374;1271;22551;-77
2022/03/01 06:41:55;;;;;;;222.40;82.90;;;;;;;-3.61;74.33;100463.31;108367;1271;22556;-77
2022/03/01 06:44:22;;;;;;;231.20;82.50;;;;;;;-3.48;73.81;100465.46;108343;1271;22629;-77
2022/03/01 06:46:49;;;;;;;262.80;93.10;;;;;;;-3.36;73.28;100461.41;108353;1271;27594;-76
2022/03/01 06:49:16;;;;;;;301.00;96.60;;;;;;;-3.35;73.02;100460.42;108362;1271;22566;-76
2022/03/01 06:51:43;;;;;;;240.70;82.30;;;;;;;-3.31;72.72;100460.16;108377;1271;22612;-75
2022/03/01 06:54:10;;;;;;;262.00;92.50;;;;;;;-3.26;72.62;100463.49;108370;1271;22660;-75
2022/03/01 06:56:37;;;;;;;333.80;105.70;;;;;;;-3.26;72.16;100468.09;108331;1271;22545;-75
2022/03/01 06:59:04;;;;;;;219.20;75.30;;;;;;;-3.29;71.82;100469.57;108366;1271;22846;-75
2022/03/01 07:01:31;;;;;;;194.10;67.60;;;;;;;-3.31;71.74;100470.56;108811;1271;23235;-76
2022/03/01 07:03:58;;;;;;;146.70;56.50;;;;;;;-3.32;71.70;100471.07;108381;1271;25797;-75
2022/03/01 07:06:25;;;;;;;236.50;80.40;;;;;;;-3.31;71.96;100478.06;108364;1271;22521;-76
2022/03/01 07:08:52;;;;;;;235.40;87.20;;;;;;;-3.32;71.85;100481.96;108380;1271;24433;-75
2022/03/01 07:11:19;;;;;;;165.60;67.10;;;;;;;-3.31;71.80;100478.90;108398;1271;22525;-75
2022/03/01 07:13:47;;;;;;;167.40;69.10;;;;;;;-3.24;72.01;100479.04;108369;1271;22696;-76
2022/03/01 07:16:14;;;;;;;122.90;55.70;;;;;;;-3.16;72.59;100479.55;108379;1271;22608;-77
2022/03/01 07:18:44;;;;;;;120.80;50.00;;;;;;;-3.07;73.19;100484.16;108335;1270;22669;-74
2022/03/01 07:21:11;;;;;;;155.50;59.80;;;;;;;-3.00;73.22;100485.30;108383;1271;23083;-75
2022/03/01 07:23:39;;;;;;;142.70;62.60;;;;;;;-2.94;73.14;100486.60;108357;1271;22524;-73
2022/03/01 07:26:07;;;;;;;115.20;47.10;;;;;;;-2.89;73.04;100487.56;108335;1271;22598;-74
2022/03/01 07:28:34;;;;;;;103.50;45.70;;;;;;;-2.84;72.67;100485.94;108403;1271;22617;-74
2022/03/01 07:31:01;;;;;;;118.60;52.60;;;;;;;-2.77;72.39;100488.27;108405;1271;22548;-75
2022/03/01 07:33:28;;;;;;;89.60;42.50;;;;;;;-2.71;72.35;100486.02;108404;1271;24294;-75
2022/03/01 07:35:55;;;;;;;78.40;35.40;;;;;;;-2.64;72.21;100486.64;108377;1271;22548;-77
2022/03/01 07:38:22;;;;;;;72.00;36.10;;;;;;;-2.58;72.20;100486.23;108319;1271;25342;-77
2022/03/01 07:40:49;;;;;;;79.60;35.30;;;;;;;-2.49;71.99;100485.88;108388;1271;22525;-75
2022/03/01 07:43:16;;;;;;;102.00;42.70;;;;;;;-2.43;71.84;100488.52;108370;1271;23993;-77
2022/03/01 07:45:43;;;;;;;89.00;40.60;;;;;;;-2.36;71.78;100485.24;108374;1271;23017;-78
2022/03/01 07:48:10;;;;;;;71.20;32.60;;;;;;;-2.19;71.89;100483.62;108333;1271;26169;-77
2022/03/01 07:50:38;;;;;;;83.00;35.20;;;;;;;-2.10;71.86;100481.02;108356;1271;22534;-77
2022/03/01 07:53:05;;;;;;;72.40;30.60;;;;;;;-1.99;72.01;100481.21;108368;1271;22528;-76
2022/03/01 07:55:34;;;;;;;68.50;28.40;;;;;;;-1.94;71.78;100479.39;108366;1271;22541;-75
2022/03/01 07:58:01;;;;;;;108.90;39.00;;;;;;;-1.85;71.34;100477.98;108306;1274;22580;-73
2022/03/01 08:00:28;;;;;;;93.10;33.30;;;;;;;-1.79;71.09;100479.77;108398;1271;22544;-76
2022/03/01 08:02:55;;;;;;;175.80;55.80;;;;;;;-1.71;70.85;100477.66;108372;1271;23095;-75
2022/03/01 08:05:22;;;;;;;99.40;37.30;;;;;;;-1.65;70.67;100474.66;108386;1271;25279;-76
2022/03/01 08:07:50;;;;;;;67.70;29.90;;;;;;;-1.57;70.37;100472.38;108393;1271;22561;-74
2022/03/01 08:10:18;;;;;;;54.30;23.10;;;;;;;-1.51;70.31;100468.86;108421;1271;22541;-78
2022/03/01 08:12:45;;;;;;;56.70;25.50;;;;;;;-1.43;70.15;100467.60;108371;1271;22543;-74
2022/03/01 08:15:12;;;;;;;45.30;21.60;;;;;;;-1.35;69.95;100462.58;108376;1271;23339;-77
2022/03/01 08:17:54;;;;;;;42.00;19.60;;;;;;;-1.24;69.77;100464.75;108368;1271;22534;-77
2022/03/01 08:20:22;;;;;;;54.90;28.80;;;;;;;-1.10;69.09;100460.46;108418;1271;24221;-76
2022/03/01 08:22:50;;;;;;;45.10;21.00;;;;;;;-0.96;69.80;100460.26;108356;1271;22538;-77
2022/03/01 08:25:18;;;;;;;33.50;15.60;;;;;;;-0.83;70.02;100459.89;108365;1271;22534;-83
2022/03/01 08:27:46;;;;;;;42.50;18.90;;;;;;;-0.70;68.80;100456.05;108366;1271;22527;-80
2022/03/01 08:30:14;;;;;;;45.00;22.70;;;;;;;-0.65;68.46;100455.94;108352;1271;22698;-79
2022/03/01 08:32:41;;;;;;;50.10;21.30;;;;;;;-0.55;68.21;100455.02;108402;1271;22706;-78
2022/03/01 08:35:09;;;;;;;32.00;15.80;;;;;;;-0.45;67.54;100445.50;108318;1269;23962;-80
2022/03/01 08:37:36;;;;;;;38.20;18.20;;;;;;;-0.34;67.31;100442.16;108334;1271;22549;-77
2022/03/01 08:40:04;;;;;;;28.80;12.70;;;;;;;-0.25;67.16;100439.31;108316;1271;22552;-75
2022/03/01 08:42:31;;;;;;;27.00;13.20;;;;;;;-0.17;66.43;100430.48;108877;1271;22731;-77
2022/03/01 08:44:58;;;;;;;29.90;13.60;;;;;;;-0.09;65.75;100427.27;108355;1271;25333;-73
2022/03/01 08:47:26;;;;;;;29.90;13.50;;;;;;;-0.03;65.21;100422.35;108369;1271;22708;-74
2022/03/01 08:49:53;;;;;;;26.60;11.40;;;;;;;0.06;64.91;100421.19;108367;1271;22754;-74
2022/03/01 08:52:20;;;;;;;27.60;12.60;;;;;;;0.15;63.63;100422.61;108326;1271;22594;-76
2022/03/01 08:54:47;;;;;;;27.80;12.30;;;;;;;0.20;63.41;100425.20;108409;1271;22534;-75
2022/03/01 08:57:14;;;;;;;21.60;10.60;;;;;;;0.27;62.77;100419.93;108388;1271;22661;-74
2022/03/01 08:59:41;;;;;;;20.60;10.70;;;;;;;0.31;63.07;100420.64;108363;1270;22664;-73
2022/03/01 09:02:08;;;;;;;23.90;12.40;;;;;;;0.37;62.56;100418.59;108361;1271;23545;-74
2022/03/01 09:04:36;;;;;;;19.40;10.30;;;;;;;0.43;62.59;100412.63;108387;1271;22576;-74
2022/03/01 09:07:06;;;;;;;18.70;9.00;;;;;;;0.49;61.84;100414.02;108362;1271;22675;-73
2022/03/01 09:09:33;;;;;;;15.90;8.50;;;;;;;0.53;60.49;100411.48;108368;1271;22547;-75
2022/03/01 09:12:00;;;;;;;21.10;9.90;;;;;;;0.54;60.90;100406.31;108363;1271;22612;-75
2022/03/01 09:14:27;;;;;;;23.70;12.30;;;;;;;0.59;61.31;100403.61;108360;1271;22633;-74
2022/03/01 09:16:55;;;;;;;32.10;13.70;;;;;;;0.65;61.71;100400.02;108348;1271;22673;-78
2022/03/01 09:19:22;;;;;;;23.20;11.70;;;;;;;0.73;61.30;100393.70;108362;1270;22534;-78
2022/03/01 09:21:49;;;;;;;30.10;13.90;;;;;;;0.78;61.13;100394.92;108329;1271;22569;-75
2022/03/01 09:24:16;;;;;;;21.00;11.10;;;;;;;0.82;60.47;100387.54;108371;1270;22543;-74
2022/03/01 09:26:43;;;;;;;20.40;9.60;;;;;;;0.83;59.56;100385.31;108529;1271;22536;-79
2022/03/01 09:29:10;;;;;;;25.80;13.90;;;;;;;0.85;59.73;100385.66;108547;1271;25251;-75
2022/03/01 09:31:37;;;;;;;26.00;13.00;;;;;;;0.87;59.84;100385.67;108559;1271;24009;-74
2022/03/01 09:34:04;;;;;;;26.10;12.10;;;;;;;0.91;59.84;100382.24;108585;1271;22620;-79
2022/03/01 09:36:31;;;;;;;25.50;12.00;;;;;;;0.96;59.74;100380.20;108519;1271;25314;-76
2022/03/01 09:38:58;;;;;;;28.30;13.20;;;;;;;1.02;59.07;100380.02;108554;1271;22525;-76
2022/03/01 09:41:26;;;;;;;18.60;9.30;;;;;;;1.09;58.76;100375.91;108559;1271;22614;-77
2022/03/01 09:43:54;;;;;;;17.50;8.70;;;;;;;1.14;57.60;100377.98;108542;1271;22719;-76
2022/03/01 09:46:21;;;;;;;18.00;8.70;;;;;;;1.17;57.60;100380.20;108568;1271;22540;-76
2022/03/01 09:48:48;;;;;;;17.30;8.70;;;;;;;1.22;57.93;100373.70;108537;1271;23911;-74
2022/03/01 09:51:16;;;;;;;18.90;9.20;;;;;;;1.24;57.78;100375.08;108534;1271;22617;-77
2022/03/01 09:53:43;;;;;;;21.60;9.60;;;;;;;1.26;57.74;100373.17;108554;1271;22554;-77
2022/03/01 09:56:10;;;;;;;21.10;10.50;;;;;;;1.30;57.64;100371.98;108546;1270;22524;-75
2022/03/01 09:58:38;;;;;;;15.50;7.50;;;;;;;1.35;58.07;100375.05;108556;1271;22554;-75
2022/03/01 10:01:06;;;;;;;22.20;8.70;;;;;;;1.43;56.73;100367.51;108565;1271;22646;-76
2022/03/01 10:03:35;;;;;;;21.00;10.00;;;;;;;1.44;56.39;100364.06;108554;1271;22544;-75
2022/03/01 10:06:11;;;;;;;22.70;10.30;;;;;;;1.48;55.49;100363.90;108368;1271;22688;-77
2022/03/01 10:08:38;;;;;;;26.20;12.50;;;;;;;1.54;55.76;100357.70;108397;1270;22635;-76
2022/03/01 10:11:06;;;;;;;17.00;9.20;;;;;;;1.59;55.30;100354.10;108375;1271;22529;-74
2022/03/01 10:13:36;;;;;;;16.60;7.90;;;;;;;1.64;55.27;100344.80;108406;1271;22564;-76
2022/03/01 10:16:05;;;;;;;21.90;9.80;;;;;;;1.70;55.56;100342.39;108378;1271;22599;-76
2022/03/01 10:18:35;;;;;;;20.30;10.80;;;;;;;1.75;55.30;100343.93;108386;1271;22565;-77
2022/03/01 10:21:11;;;;;;;18.00;9.60;;;;;;;1.79;54.94;100341.35;108380;1271;22530;-78
2022/03/01 10:23:44;;;;;;;24.10;11.90;;;;;;;1.87;54.48;100340.80;108404;1271;22714;-77
2022/03/01 10:26:17;;;;;;;25.30;11.90;;;;;;;1.91;53.92;100337.52;108420;1271;23131;-75
2022/03/01 10:28:46;;;;;;;23.70;12.20;;;;;;;1.94;53.93;100334.08;108536;1271;24214;-77
2022/03/01 10:31:16;;;;;;;15.10;8.30;;;;;;;2.04;52.96;100332.84;108349;1271;22540;-75
2022/03/01 10:33:52;;;;;;;18.10;8.90;;;;;;;2.08;50.71;100327.49;108376;1271;25343;-75
2022/03/01 10:36:24;;;;;;;19.50;9.50;;;;;;;2.09;50.74;100314.26;108390;1271;22541;-77
2022/03/01 10:39:13;;;;;;;13.70;6.40;;;;;;;2.11;50.88;100309.61;108421;1270;22545;-76
2022/03/01 10:41:48;;;;;;;15.00;7.00;;;;;;;2.13;50.27;100309.27;108392;1271;22592;-75
2022/03/01 10:44:16;;;;;;;13.00;6.10;;;;;;;2.14;50.79;100307.88;108370;1271;22525;-75
2022/03/01 10:46:46;;;;;;;15.90;6.30;;;;;;;2.19;50.55;100298.23;108387;1271;22527;-75
2022/03/01 10:49:16;;;;;;;17.00;7.20;;;;;;;2.27;49.08;100301.98;108378;1271;22563;-74
2022/03/01 10:51:51;;;;;;;15.60;7.20;;;;;;;2.27;49.31;100299.21;108404;1271;22551;-73
2022/03/01 10:54:36;;;;;;;14.10;7.10;;;;;;;2.27;49.84;100294.41;108354;1271;22668;-76
2022/03/01 10:57:06;;;;;;;14.10;6.90;;;;;;;2.36;49.81;100290.75;108402;1271;22535;-74
2022/03/01 10:59:36;;;;;;;16.10;8.30;;;;;;;2.40;49.48;100291.77;108369;1271;25296;-76
2022/03/01 11:02:04;;;;;;;26.30;9.80;;;;;;;2.41;49.79;100284.89;108380;1271;22533;-76
2022/03/01 11:04:32;;;;;;;18.60;8.20;;;;;;;2.42;49.47;100278.50;108336;1268;22684;-75